sensor_id;sensor_type;location;lat;lon;timestamp;temperature;humidity
17701;DHT22;8969;48.576;12.580;2023-03-15T00:00:07;5.00;99.90
17701;DHT22;8969;48.576;12.580;2023-03-15T00:02:36;5.00;99.90
17701;DHT22;8969;48.576;12.580;2023-03-15T00:05:04;5.00;99.90
17701;DHT22;8969;48.576;12.580;2023-03-15T00:07:33;5.00;99.90
17701;DHT22;8969;48.576;12.580;2023-03-15T00:10:03;5.00;99.90
17701;DHT22;8969;48.576;12.580;2023-03-15T00:12:31;5.00;99.90
17701;DHT22;8969;48.576;12.580;2023-03-15T00:15:00;5.10;99.90
17701;DHT22;8969;48.576;12.580;2023-03-15T00:17:28;5.10;99.90
17701;DHT22;8969;48.576;12.580;2023-03-15T00:20:00;5.10;99.90
17701;DHT22;8969;48.576;12.580;2023-03-15T00:22:30;5.00;99.90
17701;DHT22;8969;48.576;12.580;2023-03-15T00:24:58;5.10;99.90
17701;DHT22;8969;48.576;12.580;2023-03-15T00:27:27;5.10;99.90
17701;DHT22;8969;48.576;12.580;2023-03-15T00:29:55;5.00;99.90
17701;DHT22;8969;48.576;12.580;2023-03-15T00:32:23;5.00;99.90
17701;DHT22;8969;48.576;12.580;2023-03-15T00:34:51;5.10;99.90
17701;DHT22;8969;48.576;12.580;2023-03-15T00:37:21;5.10;99.90
17701;DHT22;8969;48.576;12.580;2023-03-15T00:39:52;5.10;99.90
17701;DHT22;8969;48.576;12.580;2023-03-15T00:42:21;5.20;99.90
17701;DHT22;8969;48.576;12.580;2023-03-15T00:44:55;5.20;99.90
17701;DHT22;8969;48.576;12.580;2023-03-15T00:47:23;5.20;99.90
17701;DHT22;8969;48.576;12.580;2023-03-15T00:49:52;5.20;99.90
17701;DHT22;8969;48.576;12.580;2023-03-15T00:52:21;5.20;99.90
17701;DHT22;8969;48.576;12.580;2023-03-15T00:54:53;5.20;99.90
17701;DHT22;8969;48.576;12.580;2023-03-15T00:57:21;5.30;99.90
17701;DHT22;8969;48.576;12.580;2023-03-15T00:59:50;5.30;99.90
17701;DHT22;8969;48.576;12.580;2023-03-15T01:02:20;5.30;99.90
17701;DHT22;8969;48.576;12.580;2023-03-15T01:04:48;5.30;99.90
17701;DHT22;8969;48.576;12.580;2023-03-15T01:07:17;5.30;99.90
17701;DHT22;8969;48.576;12.580;2023-03-15T01:09:45;5.30;99.90
17701;DHT22;8969;48.576;12.580;2023-03-15T01:12:14;5.30;99.90
17701;DHT22;8969;48.576;12.580;2023-03-15T01:14:42;5.30;99.90
17701;DHT22;8969;48.576;12.580;2023-03-15T01:17:11;5.30;99.90
17701;DHT22;8969;48.576;12.580;2023-03-15T01:19:40;5.40;99.90
17701;DHT22;8969;48.576;12.580;2023-03-15T01:22:11;5.40;99.90
17701;DHT22;8969;48.576;12.580;2023-03-15T01:24:39;5.30;99.90
17701;DHT22;8969;48.576;12.580;2023-03-15T01:27:07;5.40;99.90
17701;DHT22;8969;48.576;12.580;2023-03-15T01:29:35;5.40;99.90
17701;DHT22;8969;48.576;12.580;2023-03-15T01:32:05;5.40;99.90
17701;DHT22;8969;48.576;12.580;2023-03-15T01:34:34;5.40;99.90
17701;DHT22;8969;48.576;12.580;2023-03-15T01:37:03;5.40;99.90
17701;DHT22;8969;48.576;12.580;2023-03-15T01:39:38;5.40;99.90
17701;DHT22;8969;48.576;12.580;2023-03-15T01:42:07;5.40;99.90
17701;DHT22;8969;48.576;12.580;2023-03-15T01:44:52;5.30;99.90
17701;DHT22;8969;48.576;12.580;2023-03-15T01:47:22;5.20;99.90
17701;DHT22;8969;48.576;12.580;2023-03-15T01:49:58;5.20;99.90
17701;DHT22;8969;48.576;12.580;2023-03-15T01:52:32;5.20;99.90
17701;DHT22;8969;48.576;12.580;2023-03-15T01:55:07;5.20;99.90
17701;DHT22;8969;48.576;12.580;2023-03-15T01:57:44;5.20;99.90
17701;DHT22;8969;48.576;12.580;2023-03-15T02:00:16;5.20;99.90
17701;DHT22;8969;48.576;12.580;2023-03-15T02:03:03;5.10;99.90
17701;DHT22;8969;48.576;12.580;2023-03-15T02:05:39;5.10;99.90
17701;DHT22;8969;48.576;12.580;2023-03-15T02:08:21;5.20;99.90
17701;DHT22;8969;48.576;12.580;2023-03-15T02:10:53;5.20;99.90
17701;DHT22;8969;48.576;12.580;2023-03-15T02:13:28;5.20;99.90
17701;DHT22;8969;48.576;12.580;2023-03-15T02:16:00;5.20;99.90
17701;DHT22;8969;48.576;12.580;2023-03-15T02:18:52;5.20;99.90
17701;DHT22;8969;48.576;12.580;2023-03-15T02:21:31;5.20;99.90
17701;DHT22;8969;48.576;12.580;2023-03-15T02:24:08;5.20;99.90
17701;DHT22;8969;48.576;12.580;2023-03-15T02:26:41;5.20;99.90
17701;DHT22;8969;48.576;12.580;2023-03-15T02:29:12;5.20;99.90
17701;DHT22;8969;48.576;12.580;2023-03-15T02:31:41;5.10;99.90
17701;DHT22;8969;48.576;12.580;2023-03-15T02:34:10;5.10;99.90
17701;DHT22;8969;48.576;12.580;2023-03-15T02:36:40;4.90;99.90
17701;DHT22;8969;48.576;12.580;2023-03-15T02:39:15;4.90;99.90
17701;DHT22;8969;48.576;12.580;2023-03-15T02:41:47;4.60;99.90
17701;DHT22;8969;48.576;12.580;2023-03-15T02:44:20;4.50;99.90
17701;DHT22;8969;48.576;12.580;2023-03-15T02:46:51;4.60;99.90
17701;DHT22;8969;48.576;12.580;2023-03-15T02:49:22;4.50;99.90
17701;DHT22;8969;48.576;12.580;2023-03-15T02:51:50;4.50;99.90
17701;DHT22;8969;48.576;12.580;2023-03-15T02:54:18;4.30;99.90
17701;DHT22;8969;48.576;12.580;2023-03-15T02:56:46;4.20;99.90
17701;DHT22;8969;48.576;12.580;2023-03-15T02:59:15;4.20;99.90
17701;DHT22;8969;48.576;12.580;2023-03-15T03:01:44;4.20;99.90
17701;DHT22;8969;48.576;12.580;2023-03-15T03:04:13;4.10;99.90
17701;DHT22;8969;48.576;12.580;2023-03-15T03:06:41;4.10;99.90
17701;DHT22;8969;48.576;12.580;2023-03-15T03:09:11;4.10;99.90
17701;DHT22;8969;48.576;12.580;2023-03-15T03:11:41;4.10;99.90
17701;DHT22;8969;48.576;12.580;2023-03-15T03:14:09;4.10;99.90
17701;DHT22;8969;48.576;12.580;2023-03-15T03:16:40;4.10;99.90
17701;DHT22;8969;48.576;12.580;2023-03-15T03:19:11;4.10;99.90
17701;DHT22;8969;48.576;12.580;2023-03-15T03:21:41;4.00;99.90
17701;DHT22;8969;48.576;12.580;2023-03-15T03:24:11;4.00;99.90
17701;DHT22;8969;48.576;12.580;2023-03-15T03:26:42;4.00;99.90
17701;DHT22;8969;48.576;12.580;2023-03-15T03:29:14;3.90;99.90
17701;DHT22;8969;48.576;12.580;2023-03-15T03:31:46;3.70;99.90
17701;DHT22;8969;48.576;12.580;2023-03-15T03:34:15;3.40;99.90
17701;DHT22;8969;48.576;12.580;2023-03-15T03:36:44;3.40;99.90
17701;DHT22;8969;48.576;12.580;2023-03-15T03:39:16;3.40;99.90
17701;DHT22;8969;48.576;12.580;2023-03-15T03:41:44;3.20;99.90
17701;DHT22;8969;48.576;12.580;2023-03-15T03:44:12;3.10;99.90
17701;DHT22;8969;48.576;12.580;2023-03-15T03:46:42;3.10;99.90
17701;DHT22;8969;48.576;12.580;2023-03-15T03:49:12;3.00;99.90
17701;DHT22;8969;48.576;12.580;2023-03-15T03:51:41;3.00;99.90
17701;DHT22;8969;48.576;12.580;2023-03-15T03:54:10;2.90;99.90
17701;DHT22;8969;48.576;12.580;2023-03-15T03:56:39;2.90;99.90
17701;DHT22;8969;48.576;12.580;2023-03-15T03:59:07;2.90;99.90
17701;DHT22;8969;48.576;12.580;2023-03-15T04:02:01;3.00;99.90
17701;DHT22;8969;48.576;12.580;2023-03-15T04:04:30;3.00;99.90
17701;DHT22;8969;48.576;12.580;2023-03-15T04:07:01;3.00;99.90
17701;DHT22;8969;48.576;12.580;2023-03-15T04:09:49;2.90;99.90
17701;DHT22;8969;48.576;12.580;2023-03-15T04:12:18;2.90;99.90
17701;DHT22;8969;48.576;12.580;2023-03-15T04:14:47;2.90;99.90
17701;DHT22;8969;48.576;12.580;2023-03-15T04:17:17;3.00;99.90
17701;DHT22;8969;48.576;12.580;2023-03-15T04:19:45;2.90;99.90
17701;DHT22;8969;48.576;12.580;2023-03-15T04:22:19;2.90;99.90
17701;DHT22;8969;48.576;12.580;2023-03-15T04:25:06;2.90;99.90
17701;DHT22;8969;48.576;12.580;2023-03-15T04:28:07;2.90;99.90
17701;DHT22;8969;48.576;12.580;2023-03-15T04:30:52;2.90;99.90
17701;DHT22;8969;48.576;12.580;2023-03-15T04:33:39;2.90;99.90
17701;DHT22;8969;48.576;12.580;2023-03-15T04:36:16;3.00;99.90
17701;DHT22;8969;48.576;12.580;2023-03-15T04:39:04;3.00;99.90
17701;DHT22;8969;48.576;12.580;2023-03-15T04:41:59;2.90;99.90
17701;DHT22;8969;48.576;12.580;2023-03-15T04:44:40;2.80;99.90
17701;DHT22;8969;48.576;12.580;2023-03-15T04:47:30;3.00;99.90
17701;DHT22;8969;48.576;12.580;2023-03-15T04:50:14;3.00;99.90
17701;DHT22;8969;48.576;12.580;2023-03-15T04:52:59;2.90;99.90
17701;DHT22;8969;48.576;12.580;2023-03-15T04:55:47;2.90;99.90
17701;DHT22;8969;48.576;12.580;2023-03-15T04:58:36;2.90;99.90
17701;DHT22;8969;48.576;12.580;2023-03-15T05:01:30;3.00;99.90
17701;DHT22;8969;48.576;12.580;2023-03-15T05:04:28;2.90;99.90
17701;DHT22;8969;48.576;12.580;2023-03-15T05:07:22;2.90;99.90
17701;DHT22;8969;48.576;12.580;2023-03-15T05:10:17;2.80;99.90
17701;DHT22;8969;48.576;12.580;2023-03-15T05:13:06;2.90;99.90
17701;DHT22;8969;48.576;12.580;2023-03-15T05:15:52;2.70;99.90
17701;DHT22;8969;48.576;12.580;2023-03-15T05:18:44;2.80;99.90
17701;DHT22;8969;48.576;12.580;2023-03-15T05:21:31;2.80;99.90
17701;DHT22;8969;48.576;12.580;2023-03-15T05:24:08;2.90;99.90
17701;DHT22;8969;48.576;12.580;2023-03-15T05:26:48;2.90;99.90
17701;DHT22;8969;48.576;12.580;2023-03-15T05:29:41;2.90;99.90
17701;DHT22;8969;48.576;12.580;2023-03-15T05:32:33;2.90;99.90
17701;DHT22;8969;48.576;12.580;2023-03-15T05:35:23;2.90;99.90
17701;DHT22;8969;48.576;12.580;2023-03-15T05:38:06;2.90;99.90
17701;DHT22;8969;48.576;12.580;2023-03-15T05:40:57;2.90;99.90
17701;DHT22;8969;48.576;12.580;2023-03-15T05:43:46;2.90;99.90
17701;DHT22;8969;48.576;12.580;2023-03-15T05:46:36;3.00;99.90
17701;DHT22;8969;48.576;12.580;2023-03-15T05:49:24;2.90;99.90
17701;DHT22;8969;48.576;12.580;2023-03-15T05:52:12;2.90;99.90
17701;DHT22;8969;48.576;12.580;2023-03-15T05:55:07;2.90;99.90
17701;DHT22;8969;48.576;12.580;2023-03-15T05:57:55;3.00;99.90
17701;DHT22;8969;48.576;12.580;2023-03-15T06:00:42;3.00;99.90
17701;DHT22;8969;48.576;12.580;2023-03-15T06:03:31;3.00;99.90
17701;DHT22;8969;48.576;12.580;2023-03-15T06:06:09;3.00;99.90
17701;DHT22;8969;48.576;12.580;2023-03-15T06:08:41;2.90;99.90
17701;DHT22;8969;48.576;12.580;2023-03-15T06:11:09;3.00;99.90
17701;DHT22;8969;48.576;12.580;2023-03-15T06:13:39;3.00;99.90
17701;DHT22;8969;48.576;12.580;2023-03-15T06:16:15;2.90;99.90
17701;DHT22;8969;48.576;12.580;2023-03-15T06:18:48;2.90;99.90
17701;DHT22;8969;48.576;12.580;2023-03-15T06:21:16;2.90;99.90
17701;DHT22;8969;48.576;12.580;2023-03-15T06:23:44;3.00;99.90
17701;DHT22;8969;48.576;12.580;2023-03-15T06:26:12;3.00;99.90
17701;DHT22;8969;48.576;12.580;2023-03-15T06:28:41;3.00;99.90
17701;DHT22;8969;48.576;12.580;2023-03-15T06:31:11;3.00;99.90
17701;DHT22;8969;48.576;12.580;2023-03-15T06:33:50;2.90;99.90
17701;DHT22;8969;48.576;12.580;2023-03-15T06:36:19;2.90;99.90
17701;DHT22;8969;48.576;12.580;2023-03-15T06:38:47;3.00;99.90
17701;DHT22;8969;48.576;12.580;2023-03-15T06:41:16;2.90;99.90
17701;DHT22;8969;48.576;12.580;2023-03-15T06:43:44;3.10;99.90
17701;DHT22;8969;48.576;12.580;2023-03-15T06:46:14;3.10;99.90
17701;DHT22;8969;48.576;12.580;2023-03-15T06:48:42;3.10;99.90
17701;DHT22;8969;48.576;12.580;2023-03-15T06:51:15;3.20;99.90
17701;DHT22;8969;48.576;12.580;2023-03-15T06:53:44;3.20;99.90
17701;DHT22;8969;48.576;12.580;2023-03-15T06:56:13;3.20;99.90
17701;DHT22;8969;48.576;12.580;2023-03-15T06:58:41;3.20;99.90
17701;DHT22;8969;48.576;12.580;2023-03-15T07:01:11;3.20;99.90
17701;DHT22;8969;48.576;12.580;2023-03-15T07:03:39;3.30;99.90
17701;DHT22;8969;48.576;12.580;2023-03-15T07:06:08;3.20;99.90
17701;DHT22;8969;48.576;12.580;2023-03-15T07:08:37;3.30;99.90
17701;DHT22;8969;48.576;12.580;2023-03-15T07:11:06;3.30;99.90
17701;DHT22;8969;48.576;12.580;2023-03-15T07:13:35;3.30;99.90
17701;DHT22;8969;48.576;12.580;2023-03-15T07:16:04;3.40;99.90
17701;DHT22;8969;48.576;12.580;2023-03-15T07:18:32;3.50;99.90
17701;DHT22;8969;48.576;12.580;2023-03-15T07:21:02;3.50;99.90
17701;DHT22;8969;48.576;12.580;2023-03-15T07:23:30;3.60;99.90
17701;DHT22;8969;48.576;12.580;2023-03-15T07:26:00;3.60;99.90
17701;DHT22;8969;48.576;12.580;2023-03-15T07:28:33;3.80;99.90
17701;DHT22;8969;48.576;12.580;2023-03-15T07:31:02;3.60;99.90
17701;DHT22;8969;48.576;12.580;2023-03-15T07:33:50;3.70;99.90
17701;DHT22;8969;48.576;12.580;2023-03-15T07:36:18;3.70;99.90
17701;DHT22;8969;48.576;12.580;2023-03-15T07:38:49;3.70;99.90
17701;DHT22;8969;48.576;12.580;2023-03-15T07:41:19;3.80;99.90
17701;DHT22;8969;48.576;12.580;2023-03-15T07:44:04;3.90;99.90
17701;DHT22;8969;48.576;12.580;2023-03-15T07:46:33;4.00;99.90
17701;DHT22;8969;48.576;12.580;2023-03-15T07:49:02;4.00;99.90
17701;DHT22;8969;48.576;12.580;2023-03-15T07:51:30;4.20;99.90
17701;DHT22;8969;48.576;12.580;2023-03-15T07:53:58;4.20;99.90
17701;DHT22;8969;48.576;12.580;2023-03-15T07:56:27;4.10;99.90
17701;DHT22;8969;48.576;12.580;2023-03-15T07:58:56;4.30;99.90
17701;DHT22;8969;48.576;12.580;2023-03-15T08:01:24;4.50;99.90
17701;DHT22;8969;48.576;12.580;2023-03-15T08:03:54;4.50;99.90
17701;DHT22;8969;48.576;12.580;2023-03-15T08:06:22;4.60;99.90
17701;DHT22;8969;48.576;12.580;2023-03-15T08:08:51;4.60;99.90
17701;DHT22;8969;48.576;12.580;2023-03-15T08:11:21;4.80;99.90
17701;DHT22;8969;48.576;12.580;2023-03-15T08:13:51;4.70;99.90
17701;DHT22;8969;48.576;12.580;2023-03-15T08:16:19;4.70;99.90
17701;DHT22;8969;48.576;12.580;2023-03-15T08:18:48;4.70;99.90
17701;DHT22;8969;48.576;12.580;2023-03-15T08:21:16;4.60;99.90
17701;DHT22;8969;48.576;12.580;2023-03-15T08:23:44;4.20;99.90
17701;DHT22;8969;48.576;12.580;2023-03-15T08:26:13;4.10;99.90
17701;DHT22;8969;48.576;12.580;2023-03-15T08:28:41;4.10;99.90
17701;DHT22;8969;48.576;12.580;2023-03-15T08:31:10;4.20;99.90
17701;DHT22;8969;48.576;12.580;2023-03-15T08:33:39;4.10;99.90
17701;DHT22;8969;48.576;12.580;2023-03-15T08:36:08;4.10;99.90
17701;DHT22;8969;48.576;12.580;2023-03-15T08:38:38;4.10;99.90
17701;DHT22;8969;48.576;12.580;2023-03-15T08:41:05;4.00;99.90
17701;DHT22;8969;48.576;12.580;2023-03-15T08:43:34;4.00;99.90
17701;DHT22;8969;48.576;12.580;2023-03-15T08:46:03;4.20;99.90
17701;DHT22;8969;48.576;12.580;2023-03-15T08:48:32;4.20;99.90
17701;DHT22;8969;48.576;12.580;2023-03-15T08:51:01;4.30;99.90
17701;DHT22;8969;48.576;12.580;2023-03-15T08:53:30;4.00;99.90
17701;DHT22;8969;48.576;12.580;2023-03-15T08:55:59;4.10;99.90
17701;DHT22;8969;48.576;12.580;2023-03-15T08:58:27;4.10;99.90
17701;DHT22;8969;48.576;12.580;2023-03-15T09:00:56;4.00;99.90
17701;DHT22;8969;48.576;12.580;2023-03-15T09:03:24;4.20;99.90
17701;DHT22;8969;48.576;12.580;2023-03-15T09:05:56;4.40;99.90
17701;DHT22;8969;48.576;12.580;2023-03-15T09:08:26;4.60;99.90
17701;DHT22;8969;48.576;12.580;2023-03-15T09:10:56;4.60;99.90
17701;DHT22;8969;48.576;12.580;2023-03-15T09:13:25;5.00;99.90
17701;DHT22;8969;48.576;12.580;2023-03-15T09:15:55;4.90;99.90
17701;DHT22;8969;48.576;12.580;2023-03-15T09:18:24;4.90;99.90
17701;DHT22;8969;48.576;12.580;2023-03-15T09:20:52;4.70;99.90
17701;DHT22;8969;48.576;12.580;2023-03-15T09:23:24;4.80;99.90
17701;DHT22;8969;48.576;12.580;2023-03-15T09:25:53;4.70;99.90
17701;DHT22;8969;48.576;12.580;2023-03-15T09:28:21;4.90;99.90
17701;DHT22;8969;48.576;12.580;2023-03-15T09:30:52;4.70;99.90
17701;DHT22;8969;48.576;12.580;2023-03-15T09:33:21;4.90;99.90
17701;DHT22;8969;48.576;12.580;2023-03-15T09:35:50;5.50;99.90
17701;DHT22;8969;48.576;12.580;2023-03-15T09:38:18;5.90;99.90
17701;DHT22;8969;48.576;12.580;2023-03-15T09:40:50;6.20;99.90
17701;DHT22;8969;48.576;12.580;2023-03-15T09:43:43;6.10;99.90
17701;DHT22;8969;48.576;12.580;2023-03-15T09:46:38;6.00;99.90
17701;DHT22;8969;48.576;12.580;2023-03-15T09:49:12;6.30;99.90
17701;DHT22;8969;48.576;12.580;2023-03-15T09:51:45;6.40;99.90
17701;DHT22;8969;48.576;12.580;2023-03-15T09:54:15;6.40;99.90
17701;DHT22;8969;48.576;12.580;2023-03-15T09:56:52;6.40;99.90
17701;DHT22;8969;48.576;12.580;2023-03-15T09:59:25;6.50;99.90
17701;DHT22;8969;48.576;12.580;2023-03-15T10:01:58;6.70;99.90
17701;DHT22;8969;48.576;12.580;2023-03-15T10:04:30;6.50;99.90
17701;DHT22;8969;48.576;12.580;2023-03-15T10:07:22;6.30;99.90
17701;DHT22;8969;48.576;12.580;2023-03-15T10:09:52;6.70;99.90
17701;DHT22;8969;48.576;12.580;2023-03-15T10:12:29;6.90;99.90
17701;DHT22;8969;48.576;12.580;2023-03-15T10:15:15;6.60;99.90
17701;DHT22;8969;48.576;12.580;2023-03-15T10:17:54;6.30;99.90
17701;DHT22;8969;48.576;12.580;2023-03-15T10:20:26;6.30;99.90
17701;DHT22;8969;48.576;12.580;2023-03-15T10:22:59;6.30;99.90
17701;DHT22;8969;48.576;12.580;2023-03-15T10:25:30;6.30;99.90
17701;DHT22;8969;48.576;12.580;2023-03-15T10:28:03;6.70;99.90
17701;DHT22;8969;48.576;12.580;2023-03-15T10:30:36;6.60;99.90
17701;DHT22;8969;48.576;12.580;2023-03-15T10:33:14;6.50;99.90
17701;DHT22;8969;48.576;12.580;2023-03-15T10:35:44;6.30;99.90
17701;DHT22;8969;48.576;12.580;2023-03-15T10:38:13;6.20;99.90
17701;DHT22;8969;48.576;12.580;2023-03-15T10:40:44;6.60;99.90
17701;DHT22;8969;48.576;12.580;2023-03-15T10:43:21;6.80;99.90
17701;DHT22;8969;48.576;12.580;2023-03-15T10:46:01;7.00;99.90
17701;DHT22;8969;48.576;12.580;2023-03-15T10:48:31;7.20;99.90
17701;DHT22;8969;48.576;12.580;2023-03-15T10:51:03;7.60;99.90
17701;DHT22;8969;48.576;12.580;2023-03-15T10:53:32;7.80;99.90
17701;DHT22;8969;48.576;12.580;2023-03-15T10:56:02;7.50;99.90
17701;DHT22;8969;48.576;12.580;2023-03-15T10:58:41;7.50;99.90
17701;DHT22;8969;48.576;12.580;2023-03-15T11:01:24;7.20;99.90
17701;DHT22;8969;48.576;12.580;2023-03-15T11:04:12;7.20;99.90
17701;DHT22;8969;48.576;12.580;2023-03-15T11:06:44;7.00;99.90
17701;DHT22;8969;48.576;12.580;2023-03-15T11:09:14;6.70;99.90
17701;DHT22;8969;48.576;12.580;2023-03-15T11:11:56;6.50;99.90
17701;DHT22;8969;48.576;12.580;2023-03-15T11:14:32;6.70;99.90
17701;DHT22;8969;48.576;12.580;2023-03-15T11:17:02;6.80;99.90
17701;DHT22;8969;48.576;12.580;2023-03-15T11:19:35;7.30;99.90
17701;DHT22;8969;48.576;12.580;2023-03-15T11:22:05;7.70;99.90
17701;DHT22;8969;48.576;12.580;2023-03-15T11:24:37;7.90;99.90
17701;DHT22;8969;48.576;12.580;2023-03-15T11:27:10;8.00;99.90
17701;DHT22;8969;48.576;12.580;2023-03-15T11:29:44;7.90;99.90
17701;DHT22;8969;48.576;12.580;2023-03-15T11:32:15;8.00;99.90
17701;DHT22;8969;48.576;12.580;2023-03-15T11:34:47;8.10;99.90
17701;DHT22;8969;48.576;12.580;2023-03-15T11:37:21;8.20;99.90
17701;DHT22;8969;48.576;12.580;2023-03-15T11:39:56;7.70;99.90
17701;DHT22;8969;48.576;12.580;2023-03-15T11:42:40;7.10;97.50
17701;DHT22;8969;48.576;12.580;2023-03-15T11:45:18;6.80;99.10
17701;DHT22;8969;48.576;12.580;2023-03-15T11:47:51;6.60;99.20
17701;DHT22;8969;48.576;12.580;2023-03-15T11:50:20;6.30;99.20
17701;DHT22;8969;48.576;12.580;2023-03-15T11:52:50;6.10;99.90
17701;DHT22;8969;48.576;12.580;2023-03-15T11:55:22;6.30;99.90
17701;DHT22;8969;48.576;12.580;2023-03-15T11:57:52;6.70;99.90
17701;DHT22;8969;48.576;12.580;2023-03-15T12:00:50;6.70;98.90
17701;DHT22;8969;48.576;12.580;2023-03-15T12:03:32;6.90;99.50
17701;DHT22;8969;48.576;12.580;2023-03-15T12:06:11;6.80;99.60
17701;DHT22;8969;48.576;12.580;2023-03-15T12:08:46;6.60;99.90
17701;DHT22;8969;48.576;12.580;2023-03-15T12:11:35;6.40;99.90
17701;DHT22;8969;48.576;12.580;2023-03-15T12:14:08;6.70;99.90
17701;DHT22;8969;48.576;12.580;2023-03-15T12:16:48;7.10;99.70
17701;DHT22;8969;48.576;12.580;2023-03-15T12:19:18;7.60;98.80
17701;DHT22;8969;48.576;12.580;2023-03-15T12:21:50;7.80;98.40
17701;DHT22;8969;48.576;12.580;2023-03-15T12:24:23;8.10;97.70
17701;DHT22;8969;48.576;12.580;2023-03-15T12:26:59;8.30;98.80
17701;DHT22;8969;48.576;12.580;2023-03-15T12:29:29;8.50;97.70
17701;DHT22;8969;48.576;12.580;2023-03-15T12:32:07;8.60;97.00
17701;DHT22;8969;48.576;12.580;2023-03-15T12:34:45;8.60;95.70
17701;DHT22;8969;48.576;12.580;2023-03-15T12:37:17;8.50;95.90
17701;DHT22;8969;48.576;12.580;2023-03-15T12:39:49;8.50;97.40
17701;DHT22;8969;48.576;12.580;2023-03-15T12:45:43;8.20;96.40
17701;DHT22;8969;48.576;12.580;2023-03-15T12:48:24;8.50;97.50
17701;DHT22;8969;48.576;12.580;2023-03-15T12:53:45;8.80;95.40
17701;DHT22;8969;48.576;12.580;2023-03-15T12:56:33;8.80;94.70
17701;DHT22;8969;48.576;12.580;2023-03-15T12:59:11;8.70;94.20
17701;DHT22;8969;48.576;12.580;2023-03-15T13:01:43;8.30;95.50
17701;DHT22;8969;48.576;12.580;2023-03-15T13:04:13;8.20;97.40
17701;DHT22;8969;48.576;12.580;2023-03-15T13:06:53;7.70;95.20
17701;DHT22;8969;48.576;12.580;2023-03-15T13:09:48;7.70;97.40
17701;DHT22;8969;48.576;12.580;2023-03-15T13:12:25;7.60;96.70
17701;DHT22;8969;48.576;12.580;2023-03-15T13:14:58;7.50;96.80
17701;DHT22;8969;48.576;12.580;2023-03-15T13:17:35;7.70;96.70
17701;DHT22;8969;48.576;12.580;2023-03-15T13:20:21;8.10;97.20
17701;DHT22;8969;48.576;12.580;2023-03-15T13:23:01;8.30;96.70
17701;DHT22;8969;48.576;12.580;2023-03-15T13:25:34;8.00;94.70
17701;DHT22;8969;48.576;12.580;2023-03-15T13:28:09;8.20;95.30
17701;DHT22;8969;48.576;12.580;2023-03-15T13:30:42;8.00;94.60
17701;DHT22;8969;48.576;12.580;2023-03-15T13:33:19;8.00;95.60
17701;DHT22;8969;48.576;12.580;2023-03-15T13:35:56;8.00;95.00
17701;DHT22;8969;48.576;12.580;2023-03-15T13:38:28;8.20;95.70
17701;DHT22;8969;48.576;12.580;2023-03-15T13:40:57;7.90;94.50
17701;DHT22;8969;48.576;12.580;2023-03-15T13:43:28;7.90;94.10
17701;DHT22;8969;48.576;12.580;2023-03-15T13:45:58;7.90;94.90
17701;DHT22;8969;48.576;12.580;2023-03-15T13:48:29;7.90;94.20
17701;DHT22;8969;48.576;12.580;2023-03-15T13:51:03;8.10;95.90
17701;DHT22;8969;48.576;12.580;2023-03-15T13:53:32;8.10;94.50
17701;DHT22;8969;48.576;12.580;2023-03-15T13:56:16;8.10;95.80
17701;DHT22;8969;48.576;12.580;2023-03-15T13:58:45;7.80;94.80
17701;DHT22;8969;48.576;12.580;2023-03-15T14:01:14;7.90;95.90
17701;DHT22;8969;48.576;12.580;2023-03-15T14:03:47;8.00;95.70
17701;DHT22;8969;48.576;12.580;2023-03-15T14:06:22;7.90;95.20
17701;DHT22;8969;48.576;12.580;2023-03-15T14:08:59;7.80;95.40
17701;DHT22;8969;48.576;12.580;2023-03-15T14:11:33;7.60;95.20
17701;DHT22;8969;48.576;12.580;2023-03-15T14:14:19;7.40;96.10
17701;DHT22;8969;48.576;12.580;2023-03-15T14:16:48;7.50;96.70
17701;DHT22;8969;48.576;12.580;2023-03-15T14:19:32;7.30;96.70
17701;DHT22;8969;48.576;12.580;2023-03-15T14:22:22;7.10;95.90
17701;DHT22;8969;48.576;12.580;2023-03-15T14:24:51;7.20;97.00
17701;DHT22;8969;48.576;12.580;2023-03-15T14:27:22;7.30;97.00
17701;DHT22;8969;48.576;12.580;2023-03-15T14:29:55;7.20;96.00
17701;DHT22;8969;48.576;12.580;2023-03-15T14:32:26;7.20;96.10
17701;DHT22;8969;48.576;12.580;2023-03-15T14:35:01;7.30;97.00
17701;DHT22;8969;48.576;12.580;2023-03-15T14:37:35;7.40;96.90
17701;DHT22;8969;48.576;12.580;2023-03-15T14:40:14;7.30;95.50
17701;DHT22;8969;48.576;12.580;2023-03-15T14:42:43;7.30;96.70
17701;DHT22;8969;48.576;12.580;2023-03-15T14:45:12;7.20;96.80
17701;DHT22;8969;48.576;12.580;2023-03-15T14:47:43;6.90;96.80
17701;DHT22;8969;48.576;12.580;2023-03-15T14:50:25;6.70;98.10
17701;DHT22;8969;48.576;12.580;2023-03-15T14:52:56;6.50;99.20
17701;DHT22;8969;48.576;12.580;2023-03-15T14:55:28;6.40;99.80
17701;DHT22;8969;48.576;12.580;2023-03-15T14:58:20;6.40;99.90
17701;DHT22;8969;48.576;12.580;2023-03-15T15:00:50;6.40;99.90
17701;DHT22;8969;48.576;12.580;2023-03-15T15:03:24;6.50;99.90
17701;DHT22;8969;48.576;12.580;2023-03-15T15:05:57;6.40;99.90
17701;DHT22;8969;48.576;12.580;2023-03-15T15:08:27;6.50;99.90
17701;DHT22;8969;48.576;12.580;2023-03-15T15:10:56;6.50;99.90
17701;DHT22;8969;48.576;12.580;2023-03-15T15:13:26;6.30;99.90
17701;DHT22;8969;48.576;12.580;2023-03-15T15:15:55;6.40;99.90
17701;DHT22;8969;48.576;12.580;2023-03-15T15:18:24;6.40;99.90
17701;DHT22;8969;48.576;12.580;2023-03-15T15:20:54;6.40;99.90
17701;DHT22;8969;48.576;12.580;2023-03-15T15:23:25;6.30;99.90
17701;DHT22;8969;48.576;12.580;2023-03-15T15:25:58;6.30;99.90
17701;DHT22;8969;48.576;12.580;2023-03-15T15:28:31;6.10;99.90
17701;DHT22;8969;48.576;12.580;2023-03-15T15:31:04;6.30;99.90
17701;DHT22;8969;48.576;12.580;2023-03-15T15:33:33;6.30;99.90
17701;DHT22;8969;48.576;12.580;2023-03-15T15:36:01;6.30;99.90
17701;DHT22;8969;48.576;12.580;2023-03-15T15:38:32;6.30;99.90
17701;DHT22;8969;48.576;12.580;2023-03-15T15:41:11;6.20;99.90
17701;DHT22;8969;48.576;12.580;2023-03-15T15:43:40;6.20;99.90
17701;DHT22;8969;48.576;12.580;2023-03-15T15:46:09;6.10;99.90
17701;DHT22;8969;48.576;12.580;2023-03-15T15:48:39;6.10;99.90
17701;DHT22;8969;48.576;12.580;2023-03-15T15:51:17;6.10;99.90
17701;DHT22;8969;48.576;12.580;2023-03-15T15:53:47;6.00;99.90
17701;DHT22;8969;48.576;12.580;2023-03-15T15:56:17;5.90;99.90
17701;DHT22;8969;48.576;12.580;2023-03-15T15:58:45;5.90;99.90
17701;DHT22;8969;48.576;12.580;2023-03-15T16:01:14;5.80;99.90
17701;DHT22;8969;48.576;12.580;2023-03-15T16:03:42;5.90;99.90
17701;DHT22;8969;48.576;12.580;2023-03-15T16:06:15;5.70;99.90
17701;DHT22;8969;48.576;12.580;2023-03-15T16:08:44;5.80;99.90
17701;DHT22;8969;48.576;12.580;2023-03-15T16:11:15;5.70;99.90
17701;DHT22;8969;48.576;12.580;2023-03-15T16:13:45;5.60;99.90
17701;DHT22;8969;48.576;12.580;2023-03-15T16:16:16;5.70;99.90
17701;DHT22;8969;48.576;12.580;2023-03-15T16:18:45;5.70;99.90
17701;DHT22;8969;48.576;12.580;2023-03-15T16:21:15;5.60;99.90
17701;DHT22;8969;48.576;12.580;2023-03-15T16:23:44;5.60;99.90
17701;DHT22;8969;48.576;12.580;2023-03-15T16:26:16;5.50;99.90
17701;DHT22;8969;48.576;12.580;2023-03-15T16:28:45;5.50;99.90
17701;DHT22;8969;48.576;12.580;2023-03-15T16:31:19;5.40;99.90